Time;durP1;ratioP1;P1;durP2;ratioP2;P2;SDS_P1;SDS_P2;PMS_P1;PMS_P2;Temp;Humidity;BMP_temperature;BMP_pressure;BME280_temperature;BME280_humidity;BME280_pressure;Samples;Min_cycle;Max_cycle;Signal;HPM_P1;HPM_P2
2023/08/09 02:42:26;;;;;;;6.20;4.60;;;;;;;24.65;100.00;100744.36;108793;1259;68718;-87
2023/08/09 02:45:14;;;;;;;5.70;4.10;;;;;;;24.58;100.00;100751.57;108763;1258;71494;-88
2023/08/09 02:48:03;;;;;;;9.30;4.40;;;;;;;24.60;100.00;100749.94;108697;1259;61431;-88
2023/08/09 02:50:51;;;;;;;9.50;5.10;;;;;;;24.78;100.00;100754.36;108655;1258;59978;-84
2023/08/09 02:53:57;;;;;;;7.40;4.20;;;;;;;24.78;100.00;100752.21;108710;1260;73515;-88
2023/08/09 02:56:45;;;;;;;6.20;4.30;;;;;;;24.74;100.00;100758.05;108695;1260;67585;-88
2023/08/09 02:59:34;;;;;;;6.50;4.70;;;;;;;24.67;100.00;100756.14;108685;1260;72670;-84
2023/08/09 03:02:23;;;;;;;8.40;4.90;;;;;;;24.75;100.00;100763.33;108727;1259;63280;-88
2023/08/09 03:05:12;;;;;;;8.90;5.40;;;;;;;24.67;100.00;100765.00;108710;1259;61094;-88
2023/08/09 03:08:00;;;;;;;7.90;5.00;;;;;;;24.74;100.00;100762.98;108541;1260;74453;-88
2023/08/09 03:10:48;;;;;;;8.60;5.20;;;;;;;24.81;100.00;100765.13;108648;1260;68720;-84
2023/08/09 03:13:37;;;;;;;9.00;5.20;;;;;;;24.88;100.00;100769.39;108572;1259;73758;-85
2023/08/09 03:16:25;;;;;;;6.20;4.60;;;;;;;25.06;100.00;100775.36;108668;1259;61102;-87
2023/08/09 03:19:13;;;;;;;6.20;4.00;;;;;;;25.14;100.00;100775.82;108588;1259;61373;-84
2023/08/09 03:22:01;;;;;;;8.40;4.80;;;;;;;25.15;100.00;100778.32;108599;1259;74608;-84
2023/08/09 03:24:49;;;;;;;7.10;4.90;;;;;;;25.25;100.00;100778.85;108747;1260;69215;-88
2023/08/09 03:27:37;;;;;;;5.40;4.40;;;;;;;25.20;100.00;100780.68;108758;1258;73640;-89
2023/08/09 03:30:25;;;;;;;7.20;4.70;;;;;;;25.25;100.00;100786.12;108570;1259;63218;-88
2023/08/09 03:33:13;;;;;;;7.40;5.10;;;;;;;25.32;100.00;100786.73;108723;1260;59154;-89
2023/08/09 03:36:02;;;;;;;9.20;5.70;;;;;;;25.39;100.00;100784.38;108697;1260;73313;-84
2023/08/09 03:38:50;;;;;;;8.80;5.30;;;;;;;25.42;100.00;100794.35;108737;1260;69546;-89
2023/08/09 03:41:38;;;;;;;8.50;5.10;;;;;;;25.55;100.00;100799.27;108653;1260;72622;-84
2023/08/09 03:44:28;;;;;;;9.00;4.70;;;;;;;25.58;100.00;100802.29;108655;1259;59122;-83
2023/08/09 03:47:16;;;;;;;6.60;4.30;;;;;;;25.65;100.00;100802.23;108663;1259;59547;-84
2023/08/09 03:50:05;;;;;;;8.30;5.10;;;;;;;25.70;100.00;100801.23;108767;1260;66174;-86
2023/08/09 03:52:54;;;;;;;7.70;4.80;;;;;;;25.75;100.00;100801.14;108688;1259;60968;-89
2023/08/09 03:55:43;;;;;;;7.60;4.80;;;;;;;25.88;100.00;100802.74;108744;1259;63975;-89
2023/08/09 03:58:32;;;;;;;9.00;5.60;;;;;;;26.07;100.00;100801.04;108791;1259;59200;-88
2023/08/09 04:01:20;;;;;;;7.50;4.70;;;;;;;26.19;100.00;100802.50;108770;1258;59371;-88
2023/08/09 04:04:08;;;;;;;8.30;5.40;;;;;;;26.28;100.00;100803.58;108636;1260;65788;-84
2023/08/09 04:06:56;;;;;;;9.10;5.30;;;;;;;26.37;100.00;100805.73;108725;1258;59839;-89
2023/08/09 04:09:44;;;;;;;9.10;5.30;;;;;;;26.50;100.00;100803.11;108779;1258;64882;-84
2023/08/09 04:12:31;;;;;;;13.10;5.30;;;;;;;26.62;100.00;100802.33;108694;1259;59184;-89
2023/08/09 04:15:21;;;;;;;7.50;4.70;;;;;;;26.75;100.00;100805.53;108651;1259;60084;-85
2023/08/09 04:18:09;;;;;;;7.70;5.20;;;;;;;26.93;100.00;100811.11;108711;1258;67076;-88
2023/08/09 04:20:57;;;;;;;7.30;5.10;;;;;;;26.79;100.00;100810.70;108690;1260;68635;-85
2023/08/09 04:23:45;;;;;;;7.50;5.20;;;;;;;27.06;100.00;100814.47;108679;1259;63873;-86
2023/08/09 04:26:33;;;;;;;7.20;4.80;;;;;;;27.12;100.00;100816.14;108725;1259;59405;-84
2023/08/09 04:29:21;;;;;;;9.20;5.10;;;;;;;27.14;100.00;100814.89;108671;1259;59475;-84
2023/08/09 04:32:09;;;;;;;9.10;5.40;;;;;;;27.20;100.00;100818.97;108672;1260;65761;-88
2023/08/09 04:34:57;;;;;;;8.90;5.30;;;;;;;27.24;100.00;100826.48;108683;1261;60330;-85
2023/08/09 04:37:45;;;;;;;10.50;5.00;;;;;;;27.40;100.00;100828.65;108675;1259;64858;-90
2023/08/09 04:40:34;;;;;;;6.20;4.60;;;;;;;27.65;100.00;100834.90;108755;1258;59092;-90
2023/08/09 04:43:22;;;;;;;9.10;4.90;;;;;;;27.68;100.00;100838.23;108774;1257;60284;-90
2023/08/09 04:46:10;;;;;;;6.10;4.60;;;;;;;27.74;100.00;100839.71;108739;1259;67193;-90
2023/08/09 04:48:59;;;;;;;10.90;4.90;;;;;;;27.74;100.00;100845.33;108791;1258;59896;-88
2023/08/09 04:51:47;;;;;;;6.60;4.90;;;;;;;27.88;100.00;100848.70;108730;1258;63893;-85
2023/08/09 04:54:35;;;;;;;7.60;4.80;;;;;;;27.97;100.00;100853.98;108775;1258;59584;-90
2023/08/09 04:57:23;;;;;;;7.20;4.60;;;;;;;28.05;100.00;100856.78;108737;1259;59730;-85
2023/08/09 05:00:12;;;;;;;7.60;5.20;;;;;;;28.01;100.00;100853.62;108603;1258;66040;-86
2023/08/09 05:02:59;;;;;;;5.90;4.90;;;;;;;28.05;100.00;100855.75;108749;1257;61159;-85
2023/08/09 05:05:47;;;;;;;7.80;4.80;;;;;;;28.16;100.00;100858.95;108690;1258;65071;-86
2023/08/09 05:08:35;;;;;;;6.00;5.30;;;;;;;28.38;100.00;100859.52;108718;1258;59117;-86
2023/08/09 05:11:22;;;;;;;6.60;4.70;;;;;;;28.84;100.00;100862.42;108760;1258;59273;-86
2023/08/09 05:14:10;;;;;;;5.80;5.00;;;;;;;29.12;100.00;100868.14;108767;1258;67241;-86
2023/08/09 05:16:58;;;;;;;6.10;4.60;;;;;;;29.23;100.00;100870.66;108765;1258;60112;-86
2023/08/09 05:19:46;;;;;;;6.90;4.50;;;;;;;29.15;100.00;100870.64;108749;1258;64017;-86
2023/08/09 05:22:34;;;;;;;5.60;4.40;;;;;;;29.26;100.00;100875.33;108717;1258;59501;-87
2023/08/09 05:25:22;;;;;;;6.90;4.50;;;;;;;29.41;100.00;100879.80;108766;1258;59075;-86
2023/08/09 05:28:09;;;;;;;9.60;4.00;;;;;;;29.57;100.00;100880.23;108631;1258;66923;-86
2023/08/09 05:30:57;;;;;;;6.90;4.20;;;;;;;29.66;100.00;100877.94;108730;1258;62230;-89
2023/08/09 05:33:46;;;;;;;6.10;4.10;;;;;;;29.83;100.00;100881.11;108456;1259;64528;-88
2023/08/09 05:36:34;;;;;;;6.80;4.20;;;;;;;30.00;100.00;100883.94;108652;1258;59868;-87
2023/08/09 05:39:22;;;;;;;4.70;4.00;;;;;;;30.23;100.00;100883.38;108719;1259;59253;-89
2023/08/09 05:42:09;;;;;;;9.00;3.80;;;;;;;30.43;100.00;100883.20;108670;1259;65841;-86
2023/08/09 05:44:59;;;;;;;7.60;2.60;;;;;;;30.53;100.00;100880.93;108722;1258;61355;-85
2023/08/09 05:47:47;;;;;;;5.80;2.80;;;;;;;30.46;100.00;100879.09;108710;1259;64094;-87
2023/08/09 05:50:34;;;;;;;3.40;2.50;;;;;;;30.71;100.00;100878.70;108669;1258;59811;-89
2023/08/09 05:53:22;;;;;;;3.50;2.30;;;;;;;30.99;99.18;100879.76;108785;1258;59004;-87
2023/08/09 05:56:10;;;;;;;3.70;2.00;;;;;;;31.14;97.29;100885.27;108776;1258;67150;-87
2023/08/09 05:58:58;;;;;;;5.70;1.90;;;;;;;31.25;94.51;100889.23;108744;1259;60837;-90
2023/08/09 06:01:49;;;;;;;3.10;2.30;;;;;;;31.40;93.92;100889.17;108716;1259;65238;-90
2023/08/09 06:04:37;;;;;;;2.80;2.10;;;;;;;31.57;93.12;100894.65;108755;1258;59715;-90
2023/08/09 06:07:25;;;;;;;3.20;2.40;;;;;;;31.76;88.83;100892.75;108745;1259;59045;-87
2023/08/09 06:10:14;;;;;;;4.10;2.30;;;;;;;31.65;86.95;100894.68;108770;1258;66075;-86
2023/08/09 06:13:02;;;;;;;2.80;1.90;;;;;;;31.46;88.24;100896.66;108795;1258;61135;-87
2023/08/09 06:15:50;;;;;;;3.40;2.20;;;;;;;31.65;87.79;100892.59;108759;1259;65954;-88
2023/08/09 06:18:37;;;;;;;5.60;2.30;;;;;;;31.92;88.57;100890.87;108770;1258;59827;-87
2023/08/09 06:21:25;;;;;;;4.10;2.20;;;;;;;32.20;89.46;100894.20;108807;1258;59644;-88
2023/08/09 06:24:13;;;;;;;3.90;2.90;;;;;;;32.33;88.59;100897.56;108765;1258;66852;-88
2023/08/09 06:27:01;;;;;;;3.80;2.60;;;;;;;32.23;86.54;100904.28;108769;1258;59968;-89
2023/08/09 06:29:49;;;;;;;4.70;3.30;;;;;;;32.37;87.03;100909.55;108753;1258;63866;-90
2023/08/09 06:32:37;;;;;;;3.60;3.10;;;;;;;32.55;81.65;100911.26;108765;1258;59620;-87
2023/08/09 06:35:24;;;;;;;3.40;3.00;;;;;;;32.54;81.29;100908.60;108704;1259;59185;-90
2023/08/09 06:38:13;;;;;;;3.50;3.20;;;;;;;32.59;81.93;100912.84;108650;1260;67078;-87
2023/08/09 06:41:04;;;;;;;3.40;2.70;;;;;;;32.74;85.64;100912.67;108771;1259;60800;-87
2023/08/09 06:43:51;;;;;;;5.70;3.20;;;;;;;32.81;86.14;100920.04;108698;1259;64108;-90
2023/08/09 06:46:39;;;;;;;4.30;3.00;;;;;;;33.02;83.73;100915.29;108712;1259;59692;-87
2023/08/09 06:49:27;;;;;;;4.70;3.00;;;;;;;33.17;83.63;100916.25;108749;1258;59883;-90
2023/08/09 06:52:15;;;;;;;6.70;2.90;;;;;;;33.22;84.35;100922.82;108759;1258;66467;-91
2023/08/09 06:55:04;;;;;;;4.30;2.20;;;;;;;33.25;76.21;100923.82;108781;1258;61096;-91
2023/08/09 06:57:51;;;;;;;3.90;2.90;;;;;;;33.12;76.69;100925.86;108713;1259;63928;-90
2023/08/09 07:00:39;;;;;;;3.30;2.70;;;;;;;33.28;78.77;100923.39;108695;1259;59528;-90
2023/08/09 07:03:28;;;;;;;5.10;2.40;;;;;;;33.53;77.23;100920.06;108748;1258;59434;-88
2023/08/09 07:06:16;;;;;;;3.90;2.50;;;;;;;33.56;69.20;100921.40;108786;1258;66992;-91
2023/08/09 07:09:04;;;;;;;2.90;2.50;;;;;;;33.28;66.15;100925.08;108725;1259;59894;-87
2023/08/09 07:11:52;;;;;;;4.20;1.90;;;;;;;33.17;68.37;100930.55;108705;1259;65134;-87
2023/08/09 07:14:40;;;;;;;3.30;2.40;;;;;;;33.05;68.13;100934.19;108769;1258;59623;-92
2023/08/09 07:17:28;;;;;;;3.40;2.10;;;;;;;33.01;73.85;100935.98;108781;1258;59178;-87
2023/08/09 07:20:16;;;;;;;8.20;2.70;;;;;;;33.02;79.13;100933.80;108798;1258;66253;-88
2023/08/09 07:23:04;;;;;;;2.90;2.50;;;;;;;33.26;78.59;100932.88;108705;1259;61073;-88
2023/08/09 07:25:52;;;;;;;4.80;2.70;;;;;;;33.43;78.70;100931.45;108734;1258;64076;-91
2023/08/09 07:28:40;;;;;;;3.30;2.20;;;;;;;33.76;79.74;100932.52;108751;1259;59063;-88
2023/08/09 07:31:28;;;;;;;4.20;2.40;;;;;;;33.88;77.93;100932.58;108767;1258;60332;-91
2023/08/09 07:34:16;;;;;;;3.40;2.40;;;;;;;34.00;75.58;100936.52;108822;1258;65931;-92
2023/08/09 07:37:05;;;;;;;4.50;2.10;;;;;;;34.10;75.24;100934.52;108764;1258;60329;-91
2023/08/09 07:39:53;;;;;;;2.40;1.90;;;;;;;33.97;75.88;100933.75;108737;1259;65028;-90
2023/08/09 07:42:41;;;;;;;3.30;2.00;;;;;;;33.91;75.57;100939.52;108751;1258;59079;-88
2023/08/09 07:45:29;;;;;;;3.10;1.80;;;;;;;33.96;73.36;100939.98;108789;1258;59113;-89
2023/08/09 07:48:16;;;;;;;2.80;2.10;;;;;;;34.16;74.46;100939.36;108722;1258;65900;-88
2023/08/09 07:51:06;;;;;;;4.10;2.20;;;;;;;34.22;73.65;100935.23;108769;1258;60153;-87
2023/08/09 07:53:54;;;;;;;4.50;2.10;;;;;;;34.41;73.78;100938.46;108773;1258;64167;-90
2023/08/09 07:56:41;;;;;;;2.60;1.90;;;;;;;34.55;74.33;100940.41;108721;1258;59095;-88
2023/08/09 07:59:29;;;;;;;2.90;1.90;;;;;;;34.71;72.19;100937.05;108765;1259;60085;-88
2023/08/09 08:02:17;;;;;;;2.90;1.80;;;;;;;34.84;70.37;100940.20;108765;1259;65935;-87
2023/08/09 08:05:06;;;;;;;5.00;2.10;;;;;;;34.79;72.16;100940.13;108787;1258;61029;-90
2023/08/09 08:07:54;;;;;;;5.70;2.30;;;;;;;34.81;72.84;100935.56;108765;1259;64260;-89
2023/08/09 08:10:42;;;;;;;4.30;1.80;;;;;;;34.71;73.24;100932.11;108765;1259;59771;-88
2023/08/09 08:13:29;;;;;;;4.90;1.90;;;;;;;34.65;73.86;100933.58;108767;1258;59087;-89
2023/08/09 08:16:17;;;;;;;3.10;2.00;;;;;;;34.87;72.72;100932.36;108737;1259;66916;-87
2023/08/09 08:19:05;;;;;;;3.10;1.80;;;;;;;35.10;68.61;100931.34;108706;1258;59919;-90
2023/08/09 08:21:52;;;;;;;3.10;2.00;;;;;;;35.12;65.66;100932.14;108621;1259;62557;-90
2023/08/09 08:24:40;;;;;;;2.20;1.80;;;;;;;34.98;60.74;100933.85;108740;1258;59220;-92
2023/08/09 08:27:28;;;;;;;2.40;1.50;;;;;;;34.83;64.04;100934.08;108782;1258;59424;-89
2023/08/09 08:30:18;;;;;;;2.40;1.70;;;;;;;34.94;68.19;100935.86;108777;1259;67035;-90
2023/08/09 08:33:08;;;;;;;4.60;1.70;;;;;;;35.14;66.57;100931.27;108761;1258;59940;-91
2023/08/09 08:35:56;;;;;;;2.20;1.60;;;;;;;35.32;63.51;100940.95;108719;1259;63895;-90
2023/08/09 08:39:06;;;;;;;2.00;1.80;;;;;;;35.32;66.88;100945.41;108740;1259;59798;-88
2023/08/09 08:41:54;;;;;;;2.60;1.50;;;;;;;35.53;69.88;100943.50;108748;1258;58990;-88
2023/08/09 08:44:41;;;;;;;2.10;1.70;;;;;;;35.55;61.88;100943.61;108746;1258;66850;-93
2023/08/09 08:47:31;;;;;;;3.50;1.40;;;;;;;35.34;60.66;100937.02;108784;1257;61167;-89
2023/08/09 08:50:19;;;;;;;3.10;1.50;;;;;;;35.19;58.79;100935.38;108739;1259;64056;-91
2023/08/09 08:53:06;;;;;;;2.50;1.60;;;;;;;35.25;65.55;100937.86;108711;1259;59498;-89
2023/08/09 08:55:54;;;;;;;3.90;1.20;;;;;;;35.51;66.84;100941.69;108764;1263;59527;-91
2023/08/09 08:58:42;;;;;;;5.00;1.40;;;;;;;35.79;64.31;100945.13;108717;1258;66138;-93
2023/08/09 09:01:32;;;;;;;1.60;1.40;;;;;;;36.03;61.81;100950.73;108769;1259;60052;-89
2023/08/09 09:04:20;;;;;;;6.10;1.80;;;;;;;36.04;56.72;100951.27;108729;1259;64903;-92
2023/08/09 09:07:08;;;;;;;3.80;1.60;;;;;;;35.90;53.47;100949.09;108719;1259;59413;-92
2023/08/09 09:10:03;;;;;;;3.70;1.50;;;;;;;35.69;58.22;100950.30;108728;1258;59690;-92
2023/08/09 09:12:55;;;;;;;3.80;1.70;;;;;;;35.63;62.35;100950.94;108761;1259;67023;-91
2023/08/09 09:15:46;;;;;;;2.20;1.60;;;;;;;35.67;60.84;100951.66;108745;1258;60021;-92
2023/08/09 09:18:41;;;;;;;6.50;1.90;;;;;;;35.57;50.86;100956.98;108731;1259;64753;-89
2023/08/09 09:21:30;;;;;;;5.70;1.40;;;;;;;35.34;51.46;100951.86;108743;1259;59033;-91
2023/08/09 09:24:20;;;;;;;4.50;1.60;;;;;;;35.07;57.85;100952.02;108679;1259;59184;-90
2023/08/09 09:27:07;;;;;;;2.80;1.60;;;;;;;35.18;56.66;100951.80;108729;1259;66046;-91
2023/08/09 09:29:55;;;;;;;2.50;1.40;;;;;;;35.36;61.00;100951.89;108765;1259;60197;-88
2023/08/09 09:32:51;;;;;;;2.20;1.30;;;;;;;35.48;59.79;100950.09;108743;1259;74592;-88
2023/08/09 09:35:40;;;;;;;2.70;1.80;;;;;;;35.55;63.94;100947.35;108723;1259;59801;-88
2023/08/09 09:38:28;;;;;;;5.30;1.60;;;;;;;35.88;62.45;100948.39;108748;1259;59106;-92
2023/08/09 09:41:16;;;;;;;2.10;1.50;;;;;;;36.09;51.93;100949.79;108805;1259;64886;-89
2023/08/09 09:44:04;;;;;;;5.40;1.60;;;;;;;36.24;57.34;100951.77;108795;1259;61189;-91
2023/08/09 09:46:54;;;;;;;2.20;1.30;;;;;;;36.49;59.23;100954.96;108761;1259;64632;-89
2023/08/09 09:49:51;;;;;;;4.90;1.70;;;;;;;36.62;54.68;100950.23;108752;1259;59265;-89
2023/08/09 09:52:40;;;;;;;3.80;1.70;;;;;;;36.47;53.81;100947.11;108771;1259;60447;-90
2023/08/09 09:55:29;;;;;;;4.70;1.30;;;;;;;36.49;56.34;100955.70;108719;1259;67762;-91
2023/08/09 09:58:17;;;;;;;4.90;1.50;;;;;;;36.51;55.44;100957.02;108742;1258;59245;-89
2023/08/09 10:01:06;;;;;;;2.00;1.40;;;;;;;36.46;57.45;100953.41;108724;1259;63963;-89
2023/08/09 10:04:06;;;;;;;3.30;1.60;;;;;;;36.41;56.33;100949.23;108777;1259;59941;-88
2023/08/09 10:06:54;;;;;;;1.40;1.20;;;;;;;36.23;53.28;100949.77;108721;1259;59377;-91
2023/08/09 10:09:41;;;;;;;4.60;1.50;;;;;;;36.10;53.89;100951.05;108746;1259;66850;-91
2023/08/09 10:12:30;;;;;;;3.90;1.50;;;;;;;36.01;51.40;100954.02;108747;1259;60104;-92
2023/08/09 10:15:28;;;;;;;1.40;1.20;;;;;;;35.97;57.07;100953.30;108686;1259;63877;-90
2023/08/09 10:18:35;;;;;;;3.90;1.70;;;;;;;36.03;56.32;100952.60;108728;1259;59223;-91
2023/08/09 10:21:23;;;;;;;5.50;1.60;;;;;;;36.11;55.56;100952.42;108780;1259;59543;-89
2023/08/09 10:24:14;;;;;;;4.20;1.90;;;;;;;36.11;58.16;100953.40;108763;1259;66947;-91
2023/08/09 10:27:04;;;;;;;4.50;1.50;;;;;;;36.12;55.63;100950.29;108766;1258;59698;-91
2023/08/09 10:29:59;;;;;;;5.90;1.70;;;;;;;36.10;53.47;100950.66;108617;1259;62768;-90
2023/08/09 10:32:48;;;;;;;4.90;1.80;;;;;;;36.19;57.07;100950.13;108450;1259;279261;-92
2023/08/09 10:35:50;;;;;;;4.10;1.30;;;;;;;36.45;57.04;100951.08;108769;1259;59368;-89
2023/08/09 10:38:44;;;;;;;4.50;1.80;;;;;;;36.68;53.08;100951.20;108766;1258;67856;-92
2023/08/09 10:41:36;;;;;;;2.90;1.60;;;;;;;36.71;51.27;100947.45;108754;1259;61054;-91
2023/08/09 10:44:37;;;;;;;4.50;1.60;;;;;;;36.75;50.98;100948.09;108709;1259;63996;-92
2023/08/09 10:47:25;;;;;;;2.20;1.90;;;;;;;36.75;48.47;100942.32;108583;1259;60474;-92
2023/08/09 10:50:14;;;;;;;2.70;1.80;;;;;;;36.75;44.54;100942.65;108689;1259;59347;-92
2023/08/09 10:56:44;;;;;;;4.00;1.90;;;;;;;36.91;39.01;100950.18;108650;1259;60138;-91
2023/08/09 10:59:32;;;;;;;4.10;1.80;;;;;;;36.75;35.71;100949.64;108580;1259;63876;-92
2023/08/09 11:02:20;;;;;;;2.00;1.70;;;;;;;36.55;35.60;100944.66;108643;1259;59574;-91
2023/08/09 11:05:09;;;;;;;2.70;1.80;;;;;;;36.57;33.53;100945.17;108670;1259;59106;-91
2023/08/09 11:07:59;;;;;;;3.80;1.80;;;;;;;36.69;32.31;100943.30;108681;1259;65801;-92
2023/08/09 11:10:48;;;;;;;2.10;1.80;;;;;;;36.79;31.32;100943.92;108620;1259;60989;-92
2023/08/09 11:13:35;;;;;;;1.80;1.60;;;;;;;36.67;30.89;100943.37;108581;1259;62768;-90
2023/08/09 11:20:13;;;;;;;6.00;1.80;;;;;;;36.61;32.97;100947.58;108598;1259;60987;-92
2023/08/09 11:23:02;;;;;;;2.50;1.50;;;;;;;36.58;32.25;100945.48;108566;1259;76027;-90
2023/08/09 11:25:49;;;;;;;2.90;1.70;;;;;;;36.48;31.75;100946.27;108714;1259;59971;-89
2023/08/09 11:28:38;;;;;;;1.80;1.40;;;;;;;36.57;32.08;100945.39;108649;1259;65219;-91
2023/08/09 11:31:26;;;;;;;2.60;1.50;;;;;;;36.93;30.73;100940.86;108683;1258;59851;-93
2023/08/09 11:34:15;;;;;;;6.30;1.60;;;;;;;37.36;30.45;100937.67;108683;1259;59127;-90
2023/08/09 11:37:03;;;;;;;2.60;1.60;;;;;;;37.56;29.09;100937.80;108700;1259;67014;-94
2023/08/09 11:39:51;;;;;;;2.90;1.50;;;;;;;37.64;28.20;100937.88;108582;1259;59175;-92
2023/08/09 11:42:39;;;;;;;2.00;1.60;;;;;;;37.73;27.71;100936.72;108635;1259;65037;-91
2023/08/09 11:45:27;;;;;;;3.20;1.50;;;;;;;37.85;27.81;100939.89;108599;1259;59141;-89
2023/08/09 11:48:53;;;;;;;4.80;1.50;;;;;;;38.07;26.63;100941.33;108704;1259;59095;-95
2023/08/09 11:52:02;;;;;;;2.80;1.60;;;;;;;38.28;26.58;100938.39;108679;1259;64479;-91
2023/08/09 11:54:50;;;;;;;2.10;1.30;;;;;;;38.38;26.58;100940.52;108598;1259;61181;-91
2023/08/09 11:57:38;;;;;;;3.10;1.60;;;;;;;38.54;26.22;100944.39;108538;1257;64063;-92
2023/08/09 12:00:26;;;;;;;3.30;1.50;;;;;;;38.73;26.83;100943.05;108656;1259;60112;-90
2023/08/09 12:03:21;;;;;;;2.90;1.10;;;;;;;38.93;25.30;100939.80;108559;1259;64194;-90
2023/08/09 12:06:09;;;;;;;3.00;1.60;;;;;;;39.06;25.41;100941.80;108729;1259;66932;-90
2023/08/09 12:08:57;;;;;;;2.90;1.20;;;;;;;39.00;25.54;100937.45;108679;1259;60923;-89
2023/08/09 12:11:48;;;;;;;2.90;1.60;;;;;;;38.91;25.00;100935.80;108671;1259;63939;-92
2023/08/09 12:14:37;;;;;;;;;;;;;;;39.11;24.09;100937.86;108697;1259;59755;-89
2023/08/09 12:17:28;;;;;;;3.80;1.60;;;;;;;39.23;24.40;100937.09;108740;1259;59206;-90
2023/08/09 12:20:16;;;;;;;1.90;1.30;;;;;;;39.05;23.91;100937.91;108655;1259;66968;-89
2023/08/09 12:23:04;;;;;;;3.10;1.20;;;;;;;38.55;24.26;100933.23;108665;1262;61278;-91
2023/08/09 12:25:53;;;;;;;2.20;1.10;;;;;;;38.09;24.01;100934.79;108748;1259;64905;-91
2023/08/09 12:28:41;;;;;;;3.10;1.50;;;;;;;37.88;24.92;100938.03;108774;1259;59502;-92
2023/08/09 12:31:33;;;;;;;2.30;1.50;;;;;;;37.97;24.80;100938.12;108715;1257;59879;-92
2023/08/09 12:34:21;;;;;;;1.60;1.20;;;;;;;37.99;23.86;100936.61;108645;1259;66724;-90
2023/08/09 12:37:11;;;;;;;1.80;1.20;;;;;;;37.98;24.57;100940.80;108679;1263;60230;-92
2023/08/09 12:39:59;;;;;;;1.90;1.40;;;;;;;37.93;24.61;100942.59;108674;1259;65293;-89
2023/08/09 12:42:47;;;;;;;1.50;1.40;;;;;;;37.53;24.81;100939.66;108630;1257;59816;-89
2023/08/09 12:45:35;;;;;;;1.90;1.40;;;;;;;37.30;25.69;100943.11;108612;1258;59814;-89
2023/08/09 12:48:23;;;;;;;2.70;1.50;;;;;;;37.13;26.40;100946.15;108649;1259;65650;-92
2023/08/09 12:51:11;;;;;;;2.00;1.70;;;;;;;37.23;25.61;100944.65;108729;1259;61113;-92
2023/08/09 12:53:59;;;;;;;2.30;1.50;;;;;;;37.44;25.21;100941.17;108659;1259;64099;-93
2023/08/09 12:56:47;;;;;;;3.10;1.50;;;;;;;37.61;25.32;100945.48;108694;1259;59927;-92
2023/08/09 12:59:35;;;;;;;2.40;1.50;;;;;;;38.01;25.50;100948.92;108638;1259;59422;-92
2023/08/09 13:02:23;;;;;;;3.50;1.40;;;;;;;38.71;24.45;100941.17;108687;1259;66179;-93
2023/08/09 13:05:12;;;;;;;2.00;1.40;;;;;;;39.41;23.04;100939.53;108685;1257;60899;-92
2023/08/09 13:08:01;;;;;;;4.80;1.50;;;;;;;40.06;22.67;100941.20;108717;1259;64044;-92
2023/08/09 13:10:49;;;;;;;2.50;1.40;;;;;;;40.65;21.86;100940.02;108525;1260;59804;-90
2023/08/09 13:13:38;;;;;;;1.50;1.20;;;;;;;40.61;21.85;100936.13;108588;1259;59653;-93
2023/08/09 13:16:26;;;;;;;1.90;1.40;;;;;;;40.28;22.39;100936.52;108703;1259;65793;-91
2023/08/09 13:19:14;;;;;;;2.40;1.50;;;;;;;40.01;22.74;100940.30;108726;1259;61075;-88
2023/08/09 13:22:02;;;;;;;3.40;1.50;;;;;;;40.23;22.31;100941.33;108675;1259;63497;-88
2023/08/09 14:42:30;;;;;;;2.40;1.40;;;;;;;38.01;21.53;100952.15;108602;1263;59084;-89
2023/08/09 14:45:19;;;;;;;2.70;1.10;;;;;;;37.48;22.34;100948.77;108696;1259;59350;-88
2023/08/09 14:48:08;;;;;;;1.80;1.30;;;;;;;37.12;23.00;100949.98;108689;1259;66783;-87
2023/08/09 14:50:55;;;;;;;2.80;1.50;;;;;;;36.66;23.81;100949.39;108578;1259;60965;-92
2023/08/09 14:53:43;;;;;;;1.70;1.10;;;;;;;36.27;25.23;100948.38;108697;1259;62871;-88
2023/08/09 14:56:31;;;;;;;3.10;1.20;;;;;;;35.88;25.33;100946.11;108621;1261;59193;-88
2023/08/09 14:59:19;;;;;;;3.30;1.40;;;;;;;35.48;25.57;100946.70;108699;1263;59556;-88
2023/08/09 15:02:07;;;;;;;3.80;1.60;;;;;;;35.24;25.81;100950.13;108709;1258;65879;-87
2023/08/09 15:04:55;;;;;;;1.60;1.10;;;;;;;35.01;25.80;100950.02;108744;1259;61074;-88
2023/08/09 15:07:43;;;;;;;2.70;1.30;;;;;;;34.85;26.24;100946.99;108671;1261;64042;-89
2023/08/09 15:10:33;;;;;;;4.50;1.40;;;;;;;34.74;26.88;100943.32;108655;1260;60378;-90
2023/08/09 15:13:21;;;;;;;3.90;1.20;;;;;;;34.75;27.06;100946.63;108675;1258;59753;-90
2023/08/09 15:16:09;;;;;;;3.40;1.40;;;;;;;34.56;27.23;100947.36;108664;1261;67037;-90
2023/08/09 15:18:56;;;;;;;2.60;1.40;;;;;;;34.30;27.04;100951.47;108685;1260;59842;-90
2023/08/09 15:21:46;;;;;;;1.70;1.30;;;;;;;34.13;26.81;100957.32;108667;1257;64971;-91
2023/08/09 15:24:34;;;;;;;2.70;1.20;;;;;;;33.99;26.84;100959.55;108640;1261;59551;-90
2023/08/09 15:27:22;;;;;;;2.10;1.50;;;;;;;33.78;27.62;100960.27;108628;1259;59235;-88
2023/08/09 15:30:11;;;;;;;6.50;1.70;;;;;;;33.76;27.12;100963.23;108519;1262;66923;-88
2023/08/09 15:32:59;;;;;;;4.10;1.80;;;;;;;33.69;27.09;100961.30;108629;1257;59536;-87
2023/08/09 15:35:47;;;;;;;1.90;1.40;;;;;;;33.63;27.43;100961.86;108714;1260;64850;-87
2023/08/09 15:38:35;;;;;;;2.30;1.40;;;;;;;33.56;28.52;100965.66;108690;1260;59097;-89
2023/08/09 15:41:22;;;;;;;2.50;1.30;;;;;;;33.25;29.33;100972.45;108722;1259;59677;-91
2023/08/09 15:44:11;;;;;;;1.80;1.50;;;;;;;33.11;29.19;100971.96;108721;1257;66473;-88
2023/08/09 15:46:59;;;;;;;4.60;1.50;;;;;;;33.08;29.22;100970.14;108709;1261;61076;-87
2023/08/09 15:49:47;;;;;;;3.10;1.70;;;;;;;33.15;28.86;100967.39;108724;1260;65281;-88
2023/08/09 15:52:36;;;;;;;3.00;1.40;;;;;;;33.08;29.50;100967.06;108718;1261;59150;-88
2023/08/09 15:55:24;;;;;;;2.50;1.60;;;;;;;33.11;29.71;100970.02;108761;1261;59686;-90
2023/08/09 15:58:12;;;;;;;4.10;1.50;;;;;;;33.10;29.65;100968.33;108762;1259;66943;-87
2023/08/09 16:01:00;;;;;;;4.90;1.40;;;;;;;33.08;29.71;100968.11;108751;1259;61006;-90
2023/08/09 16:03:48;;;;;;;2.90;1.60;;;;;;;33.05;29.71;100964.27;108737;1258;65120;-92
2023/08/09 16:06:43;;;;;;;2.30;1.20;;;;;;;33.01;30.06;100964.86;108768;1260;59258;-92
2023/08/09 16:09:32;;;;;;;2.90;1.50;;;;;;;33.15;29.83;100962.95;108735;1258;59125;-91
2023/08/09 16:12:20;;;;;;;3.10;1.60;;;;;;;33.28;29.52;100963.27;108775;1260;66027;-89
2023/08/09 16:15:08;;;;;;;1.70;1.10;;;;;;;33.22;29.87;100966.02;108742;1259;60071;-90
2023/08/09 16:17:56;;;;;;;2.20;1.20;;;;;;;33.21;30.08;100964.07;108645;1259;66038;-89
2023/08/09 16:20:44;;;;;;;5.20;1.60;;;;;;;33.23;30.23;100966.95;108743;1259;59148;-89
2023/08/09 16:23:32;;;;;;;4.40;1.50;;;;;;;33.23;30.22;100966.65;108574;1259;59739;-91
2023/08/09 16:26:20;;;;;;;1.90;1.40;;;;;;;33.03;30.62;100967.92;108531;1259;65734;-90
2023/08/09 16:29:08;;;;;;;2.00;1.50;;;;;;;32.70;31.47;100974.81;108716;1257;60026;-88
2023/08/09 16:31:57;;;;;;;5.40;1.70;;;;;;;32.46;32.12;100977.67;108611;1260;65080;-88
2023/08/09 16:34:45;;;;;;;2.00;1.30;;;;;;;32.32;32.20;100975.94;108631;1260;61676;-88
2023/08/09 16:37:34;;;;;;;1.80;1.40;;;;;;;32.26;32.52;100976.23;108691;1260;59115;-91
2023/08/09 16:40:22;;;;;;;2.40;1.30;;;;;;;31.90;33.01;100978.71;108586;1261;66928;-90
2023/08/09 16:43:10;;;;;;;5.40;1.60;;;;;;;31.88;33.06;100980.59;108584;1260;60002;-90
2023/08/09 16:45:58;;;;;;;1.90;1.20;;;;;;;31.88;32.95;100978.24;108737;1259;64051;-91
2023/08/09 16:48:49;;;;;;;1.80;1.30;;;;;;;31.79;34.15;100980.95;108593;1259;59189;-88
2023/08/09 16:51:37;;;;;;;2.50;1.60;;;;;;;31.68;35.90;100979.95;108674;1257;60727;-90
2023/08/09 16:54:24;;;;;;;4.30;1.80;;;;;;;31.47;37.27;100979.42;108758;1257;67264;-91
2023/08/09 16:57:12;;;;;;;3.20;1.60;;;;;;;31.30;37.82;100982.05;108789;1257;60339;-89
2023/08/09 17:00:05;;;;;;;3.50;1.80;;;;;;;31.16;38.26;100985.01;108653;1257;64989;-89